EmailTwitter


Observations de surface / France / LFBD (07510)

Régions: Québec | Canada | États-Unis | Europe | France | UK | Ailleurs
Station
Affichage
Infos & localisation pour LFBD (07510) | Aide pour décoder les METARs

Observations prises le 2017-09-20 à 03H30 UTC à BORDEAUX/MERIGNA, FR (LFBD)

Température: 7.0 Celsius

Point de rosée: 6.0 Celsius

Humidité relative: 93%

Vents: Calme à 0 km/h ou 0 noeuds.

Pression au niveau moyen de la mer: 102.40 kilopascals.

Observation METAR:

LFBD 200330Z AUTO 00000KT CAVOK 07/06 Q1024 TEMPO 0500 BCFG VV///=